Inicio METAR Ruta Wind Satelite

Informe Meteorológico

Fecha: 2020/11/30 16:09:05 Local
2020.11.30 21:09 UTC


Estado: VIGENTE
Operación:VFR
Pereira / Matecana, Colombia (SKPE) 04-49N 075-44W 1342M
Nov 30, 2020 - 04:00 PM EST / 2020.11.30 2100 UTC
Wind: from the NW (320 degrees) at 5 MPH (4 KT):0
Visibility: greater than 7 mile(s):0
Sky conditions: partly cloudy
Weather: showers in the vicinity; Towering cumulus clouds observed
Temperature: 78 F (26 C)
Dew Point: 62 F (17 C)
Relative Humidity: 57%
Pressure (altimeter): 29.97 in. Hg (1014 hPa)
ob: SKPE 302100Z 32004KT 9999 VCSH FEW015TCU SCT080 26/17 A2997 RMK TCU VCSH E
cycle: 21

SKPE 302000Z 25004KT 9999 VCSH FEW015TCU SCT080 25/15 A2998 RMK TCU VCSH NE/E
SKPE 301900Z 25004KT 9999 SCT015 SCT080 24/17 A3001
SKPE 301800Z 23006KT 9999 SCT015 SCT080 24/19 A3004
SKPE 301700Z VRB02KT 9999 SCT014 SCT080 23/19 A3009
SKPE 301600Z 17008KT 9000 VCSH SCT014 SCT080 22/18 A3014 RETS RMK VCSH N

2020/11/30 18:42
TAF SKPE 301630Z 3018/0118 32006KT 9999 SCT015TCU SCT090 PROB40
TEMPO 3018/3021 7000 DZRA
BECMG 3021/3023 VRB02KT SCT013 BKN080 PROB40
TEMPO 0103/0107 8000 DZ
TEMPO 0110/0113 6000 VCFG TX24/3019Z TN17/0111Z